sensor_id;sensor_type;location;lat;lon;timestamp;P1;durP1;ratioP1;P2;durP2;ratioP2
22614;SDS011;11474;50.790;0.298;2023-06-14T00:01:33;11.43;;;3.78;;
22614;SDS011;11474;50.790;0.298;2023-06-14T00:04:00;12.93;;;3.95;;
22614;SDS011;11474;50.790;0.298;2023-06-14T00:06:30;12.00;;;3.95;;
22614;SDS011;11474;50.790;0.298;2023-06-14T00:08:56;12.73;;;3.67;;
22614;SDS011;11474;50.790;0.298;2023-06-14T00:11:22;12.38;;;3.55;;
22614;SDS011;11474;50.790;0.298;2023-06-14T00:13:48;10.40;;;3.42;;
22614;SDS011;11474;50.790;0.298;2023-06-14T00:16:14;10.30;;;3.45;;
22614;SDS011;11474;50.790;0.298;2023-06-14T00:18:41;11.52;;;3.60;;
22614;SDS011;11474;50.790;0.298;2023-06-14T00:21:08;11.90;;;3.63;;
22614;SDS011;11474;50.790;0.298;2023-06-14T00:23:35;10.50;;;3.50;;
22614;SDS011;11474;50.790;0.298;2023-06-14T00:26:01;9.20;;;3.72;;
22614;SDS011;11474;50.790;0.298;2023-06-14T00:28:27;14.00;;;3.35;;
22614;SDS011;11474;50.790;0.298;2023-06-14T00:30:53;8.15;;;3.10;;
22614;SDS011;11474;50.790;0.298;2023-06-14T00:33:19;9.57;;;3.40;;
22614;SDS011;11474;50.790;0.298;2023-06-14T00:35:46;11.23;;;3.50;;
22614;SDS011;11474;50.790;0.298;2023-06-14T00:38:12;11.30;;;3.20;;
22614;SDS011;11474;50.790;0.298;2023-06-14T00:40:38;11.63;;;3.60;;
22614;SDS011;11474;50.790;0.298;2023-06-14T00:43:05;12.10;;;3.50;;
22614;SDS011;11474;50.790;0.298;2023-06-14T00:45:31;10.77;;;3.50;;
22614;SDS011;11474;50.790;0.298;2023-06-14T00:48:01;9.55;;;3.50;;
22614;SDS011;11474;50.790;0.298;2023-06-14T00:50:27;10.48;;;3.70;;
22614;SDS011;11474;50.790;0.298;2023-06-14T00:52:55;14.32;;;3.83;;
22614;SDS011;11474;50.790;0.298;2023-06-14T00:55:21;14.45;;;3.83;;
22614;SDS011;11474;50.790;0.298;2023-06-14T00:57:47;11.20;;;3.47;;
22614;SDS011;11474;50.790;0.298;2023-06-14T01:00:14;9.85;;;3.40;;
22614;SDS011;11474;50.790;0.298;2023-06-14T01:02:40;14.35;;;3.75;;
22614;SDS011;11474;50.790;0.298;2023-06-14T01:05:07;14.68;;;3.75;;
22614;SDS011;11474;50.790;0.298;2023-06-14T01:15:21;14.13;;;4.00;;
22614;SDS011;11474;50.790;0.298;2023-06-14T01:17:48;12.45;;;3.92;;
22614;SDS011;11474;50.790;0.298;2023-06-14T01:20:17;9.73;;;3.72;;
22614;SDS011;11474;50.790;0.298;2023-06-14T01:22:55;8.52;;;3.35;;
22614;SDS011;11474;50.790;0.298;2023-06-14T01:25:22;14.88;;;3.65;;
22614;SDS011;11474;50.790;0.298;2023-06-14T01:27:49;11.50;;;3.85;;
22614;SDS011;11474;50.790;0.298;2023-06-14T01:30:16;7.97;;;3.20;;
22614;SDS011;11474;50.790;0.298;2023-06-14T01:32:43;12.93;;;4.05;;
22614;SDS011;11474;50.790;0.298;2023-06-14T01:35:09;7.45;;;3.45;;
22614;SDS011;11474;50.790;0.298;2023-06-14T01:37:36;11.15;;;3.55;;
22614;SDS011;11474;50.790;0.298;2023-06-14T01:40:05;9.32;;;3.72;;
22614;SDS011;11474;50.790;0.298;2023-06-14T01:42:34;10.07;;;3.60;;
22614;SDS011;11474;50.790;0.298;2023-06-14T01:45:02;10.88;;;3.60;;
22614;SDS011;11474;50.790;0.298;2023-06-14T01:47:29;9.65;;;3.40;;
22614;SDS011;11474;50.790;0.298;2023-06-14T01:49:55;11.13;;;3.50;;
22614;SDS011;11474;50.790;0.298;2023-06-14T01:52:21;8.60;;;3.53;;
22614;SDS011;11474;50.790;0.298;2023-06-14T01:54:49;9.60;;;3.37;;
22614;SDS011;11474;50.790;0.298;2023-06-14T01:57:17;11.48;;;3.72;;
22614;SDS011;11474;50.790;0.298;2023-06-14T01:59:43;11.02;;;3.75;;
22614;SDS011;11474;50.790;0.298;2023-06-14T02:02:13;9.15;;;3.47;;
22614;SDS011;11474;50.790;0.298;2023-06-14T02:04:39;14.27;;;5.00;;
22614;SDS011;11474;50.790;0.298;2023-06-14T02:07:05;11.00;;;3.70;;
22614;SDS011;11474;50.790;0.298;2023-06-14T02:09:33;11.43;;;3.50;;
22614;SDS011;11474;50.790;0.298;2023-06-14T02:11:59;9.07;;;3.40;;
22614;SDS011;11474;50.790;0.298;2023-06-14T02:14:25;11.05;;;3.53;;
22614;SDS011;11474;50.790;0.298;2023-06-14T02:16:51;12.68;;;3.30;;
22614;SDS011;11474;50.790;0.298;2023-06-14T02:19:18;11.57;;;3.40;;
22614;SDS011;11474;50.790;0.298;2023-06-14T02:21:44;9.32;;;3.88;;
22614;SDS011;11474;50.790;0.298;2023-06-14T02:24:10;10.07;;;3.53;;
22614;SDS011;11474;50.790;0.298;2023-06-14T02:26:37;10.20;;;3.30;;
22614;SDS011;11474;50.790;0.298;2023-06-14T02:29:03;11.07;;;3.85;;
22614;SDS011;11474;50.790;0.298;2023-06-14T02:31:30;9.77;;;3.72;;
22614;SDS011;11474;50.790;0.298;2023-06-14T02:33:57;12.32;;;4.15;;
22614;SDS011;11474;50.790;0.298;2023-06-14T02:36:23;10.00;;;3.78;;
22614;SDS011;11474;50.790;0.298;2023-06-14T02:38:49;12.00;;;3.75;;
22614;SDS011;11474;50.790;0.298;2023-06-14T02:41:16;10.23;;;3.70;;
22614;SDS011;11474;50.790;0.298;2023-06-14T02:43:42;9.73;;;3.50;;
22614;SDS011;11474;50.790;0.298;2023-06-14T02:46:08;10.52;;;3.63;;
22614;SDS011;11474;50.790;0.298;2023-06-14T02:48:35;8.15;;;3.30;;
22614;SDS011;11474;50.790;0.298;2023-06-14T02:51:01;11.30;;;3.63;;
22614;SDS011;11474;50.790;0.298;2023-06-14T02:53:27;10.80;;;3.35;;
22614;SDS011;11474;50.790;0.298;2023-06-14T02:55:53;10.10;;;3.58;;
22614;SDS011;11474;50.790;0.298;2023-06-14T02:58:20;9.00;;;3.40;;
22614;SDS011;11474;50.790;0.298;2023-06-14T03:00:46;9.70;;;3.58;;
22614;SDS011;11474;50.790;0.298;2023-06-14T03:03:12;12.27;;;3.83;;
22614;SDS011;11474;50.790;0.298;2023-06-14T03:05:41;12.23;;;3.40;;
22614;SDS011;11474;50.790;0.298;2023-06-14T03:08:11;8.45;;;3.20;;
22614;SDS011;11474;50.790;0.298;2023-06-14T03:10:42;10.65;;;3.75;;
22614;SDS011;11474;50.790;0.298;2023-06-14T03:13:08;9.38;;;3.45;;
22614;SDS011;11474;50.790;0.298;2023-06-14T03:15:36;7.10;;;3.65;;
22614;SDS011;11474;50.790;0.298;2023-06-14T03:18:03;11.57;;;3.83;;
22614;SDS011;11474;50.790;0.298;2023-06-14T03:20:29;9.18;;;3.97;;
22614;SDS011;11474;50.790;0.298;2023-06-14T03:23:02;11.85;;;3.75;;
22614;SDS011;11474;50.790;0.298;2023-06-14T03:25:28;10.60;;;3.88;;
22614;SDS011;11474;50.790;0.298;2023-06-14T03:27:55;8.85;;;3.70;;
22614;SDS011;11474;50.790;0.298;2023-06-14T03:30:21;12.65;;;3.92;;
22614;SDS011;11474;50.790;0.298;2023-06-14T03:32:47;11.60;;;3.80;;
22614;SDS011;11474;50.790;0.298;2023-06-14T03:35:14;14.95;;;4.30;;
22614;SDS011;11474;50.790;0.298;2023-06-14T03:37:44;10.52;;;4.07;;
22614;SDS011;11474;50.790;0.298;2023-06-14T03:40:11;10.80;;;4.10;;
22614;SDS011;11474;50.790;0.298;2023-06-14T03:42:37;12.10;;;3.90;;
22614;SDS011;11474;50.790;0.298;2023-06-14T03:45:03;13.15;;;3.80;;
22614;SDS011;11474;50.790;0.298;2023-06-14T03:47:30;8.55;;;3.65;;
22614;SDS011;11474;50.790;0.298;2023-06-14T03:49:56;8.90;;;3.42;;
22614;SDS011;11474;50.790;0.298;2023-06-14T03:52:23;12.38;;;3.90;;
22614;SDS011;11474;50.790;0.298;2023-06-14T03:54:50;10.40;;;3.58;;
22614;SDS011;11474;50.790;0.298;2023-06-14T03:57:16;11.57;;;4.47;;
22614;SDS011;11474;50.790;0.298;2023-06-14T03:59:43;11.35;;;3.85;;
22614;SDS011;11474;50.790;0.298;2023-06-14T04:02:09;8.95;;;3.70;;
22614;SDS011;11474;50.790;0.298;2023-06-14T04:04:35;10.48;;;4.10;;
22614;SDS011;11474;50.790;0.298;2023-06-14T04:07:02;10.48;;;4.00;;
22614;SDS011;11474;50.790;0.298;2023-06-14T04:09:28;13.70;;;4.15;;
22614;SDS011;11474;50.790;0.298;2023-06-14T04:11:55;12.40;;;4.13;;
22614;SDS011;11474;50.790;0.298;2023-06-14T04:14:21;16.80;;;3.90;;
22614;SDS011;11474;50.790;0.298;2023-06-14T04:16:48;11.73;;;4.05;;
22614;SDS011;11474;50.790;0.298;2023-06-14T04:19:14;12.13;;;4.20;;
22614;SDS011;11474;50.790;0.298;2023-06-14T04:21:41;11.98;;;4.47;;
22614;SDS011;11474;50.790;0.298;2023-06-14T04:24:07;12.23;;;3.97;;
22614;SDS011;11474;50.790;0.298;2023-06-14T04:26:39;11.63;;;4.10;;
22614;SDS011;11474;50.790;0.298;2023-06-14T04:29:05;10.93;;;4.22;;
22614;SDS011;11474;50.790;0.298;2023-06-14T04:31:31;15.57;;;4.20;;
22614;SDS011;11474;50.790;0.298;2023-06-14T04:34:03;6.75;;;3.75;;
22614;SDS011;11474;50.790;0.298;2023-06-14T04:36:32;14.05;;;4.43;;
22614;SDS011;11474;50.790;0.298;2023-06-14T04:39:15;14.05;;;4.25;;
22614;SDS011;11474;50.790;0.298;2023-06-14T04:41:42;12.50;;;4.22;;
22614;SDS011;11474;50.790;0.298;2023-06-14T04:44:09;16.45;;;4.30;;
22614;SDS011;11474;50.790;0.298;2023-06-14T04:46:36;10.57;;;4.65;;
22614;SDS011;11474;50.790;0.298;2023-06-14T04:49:14;14.00;;;4.43;;
22614;SDS011;11474;50.790;0.298;2023-06-14T04:51:41;12.55;;;4.65;;
22614;SDS011;11474;50.790;0.298;2023-06-14T04:54:08;12.88;;;4.28;;
22614;SDS011;11474;50.790;0.298;2023-06-14T04:56:42;14.20;;;4.97;;
22614;SDS011;11474;50.790;0.298;2023-06-14T04:59:08;11.07;;;4.35;;
22614;SDS011;11474;50.790;0.298;2023-06-14T05:01:36;11.95;;;4.28;;
22614;SDS011;11474;50.790;0.298;2023-06-14T05:04:02;12.73;;;4.68;;
22614;SDS011;11474;50.790;0.298;2023-06-14T05:06:29;10.90;;;3.85;;
22614;SDS011;11474;50.790;0.298;2023-06-14T05:08:56;14.27;;;5.03;;
22614;SDS011;11474;50.790;0.298;2023-06-14T05:11:22;11.65;;;4.60;;
22614;SDS011;11474;50.790;0.298;2023-06-14T05:13:52;14.45;;;4.80;;
22614;SDS011;11474;50.790;0.298;2023-06-14T05:16:18;12.77;;;4.45;;
22614;SDS011;11474;50.790;0.298;2023-06-14T05:18:45;13.85;;;4.57;;
22614;SDS011;11474;50.790;0.298;2023-06-14T05:21:12;14.32;;;4.47;;
22614;SDS011;11474;50.790;0.298;2023-06-14T05:23:42;12.80;;;4.80;;
22614;SDS011;11474;50.790;0.298;2023-06-14T05:26:09;15.48;;;4.50;;
22614;SDS011;11474;50.790;0.298;2023-06-14T05:28:35;18.90;;;4.55;;
22614;SDS011;11474;50.790;0.298;2023-06-14T05:31:02;13.85;;;4.63;;
22614;SDS011;11474;50.790;0.298;2023-06-14T05:33:28;14.48;;;4.70;;
22614;SDS011;11474;50.790;0.298;2023-06-14T05:35:54;13.38;;;4.75;;
22614;SDS011;11474;50.790;0.298;2023-06-14T05:38:20;11.38;;;4.63;;
22614;SDS011;11474;50.790;0.298;2023-06-14T05:40:47;11.73;;;4.75;;
22614;SDS011;11474;50.790;0.298;2023-06-14T05:43:13;14.05;;;4.28;;
22614;SDS011;11474;50.790;0.298;2023-06-14T05:45:39;16.90;;;5.15;;
22614;SDS011;11474;50.790;0.298;2023-06-14T05:48:05;13.77;;;4.55;;
22614;SDS011;11474;50.790;0.298;2023-06-14T05:50:31;11.15;;;4.60;;
22614;SDS011;11474;50.790;0.298;2023-06-14T05:52:57;11.18;;;4.72;;
22614;SDS011;11474;50.790;0.298;2023-06-14T05:55:24;10.70;;;4.47;;
22614;SDS011;11474;50.790;0.298;2023-06-14T05:57:50;14.05;;;4.57;;
22614;SDS011;11474;50.790;0.298;2023-06-14T06:00:17;14.63;;;5.00;;
22614;SDS011;11474;50.790;0.298;2023-06-14T06:02:44;13.13;;;4.90;;
22614;SDS011;11474;50.790;0.298;2023-06-14T06:05:13;13.85;;;4.95;;
22614;SDS011;11474;50.790;0.298;2023-06-14T06:07:40;15.32;;;5.38;;
22614;SDS011;11474;50.790;0.298;2023-06-14T06:10:09;12.90;;;4.38;;
22614;SDS011;11474;50.790;0.298;2023-06-14T06:12:35;15.70;;;5.40;;
22614;SDS011;11474;50.790;0.298;2023-06-14T06:15:01;13.95;;;5.70;;
22614;SDS011;11474;50.790;0.298;2023-06-14T06:17:28;13.50;;;5.10;;
22614;SDS011;11474;50.790;0.298;2023-06-14T06:19:54;14.13;;;5.80;;
22614;SDS011;11474;50.790;0.298;2023-06-14T06:22:20;16.50;;;5.40;;
22614;SDS011;11474;50.790;0.298;2023-06-14T06:24:47;17.23;;;5.38;;
22614;SDS011;11474;50.790;0.298;2023-06-14T06:27:13;12.43;;;4.90;;
22614;SDS011;11474;50.790;0.298;2023-06-14T06:29:41;15.20;;;5.30;;
22614;SDS011;11474;50.790;0.298;2023-06-14T06:32:08;14.07;;;5.28;;
22614;SDS011;11474;50.790;0.298;2023-06-14T06:34:35;12.73;;;5.10;;
22614;SDS011;11474;50.790;0.298;2023-06-14T06:37:02;12.25;;;5.10;;
22614;SDS011;11474;50.790;0.298;2023-06-14T06:39:28;15.47;;;5.23;;
22614;SDS011;11474;50.790;0.298;2023-06-14T06:41:54;12.90;;;5.03;;
22614;SDS011;11474;50.790;0.298;2023-06-14T06:44:20;13.73;;;5.43;;
22614;SDS011;11474;50.790;0.298;2023-06-14T06:46:46;16.70;;;5.40;;
22614;SDS011;11474;50.790;0.298;2023-06-14T06:49:13;17.10;;;5.63;;
22614;SDS011;11474;50.790;0.298;2023-06-14T06:51:42;14.33;;;5.23;;
22614;SDS011;11474;50.790;0.298;2023-06-14T06:54:10;16.50;;;5.00;;
22614;SDS011;11474;50.790;0.298;2023-06-14T06:56:36;12.97;;;5.63;;
22614;SDS011;11474;50.790;0.298;2023-06-14T06:59:02;14.77;;;5.57;;
22614;SDS011;11474;50.790;0.298;2023-06-14T07:01:28;12.82;;;5.40;;
22614;SDS011;11474;50.790;0.298;2023-06-14T07:03:55;14.57;;;5.25;;
22614;SDS011;11474;50.790;0.298;2023-06-14T07:06:21;17.63;;;5.90;;
22614;SDS011;11474;50.790;0.298;2023-06-14T07:08:48;13.70;;;5.63;;
22614;SDS011;11474;50.790;0.298;2023-06-14T07:11:14;18.00;;;6.07;;
22614;SDS011;11474;50.790;0.298;2023-06-14T07:13:40;17.67;;;6.15;;
22614;SDS011;11474;50.790;0.298;2023-06-14T07:16:06;17.02;;;5.78;;
22614;SDS011;11474;50.790;0.298;2023-06-14T07:18:32;13.00;;;5.65;;
22614;SDS011;11474;50.790;0.298;2023-06-14T07:20:58;15.10;;;5.32;;
22614;SDS011;11474;50.790;0.298;2023-06-14T07:23:25;14.32;;;5.68;;
22614;SDS011;11474;50.790;0.298;2023-06-14T07:25:51;20.42;;;6.10;;
22614;SDS011;11474;50.790;0.298;2023-06-14T07:28:17;15.73;;;5.78;;
22614;SDS011;11474;50.790;0.298;2023-06-14T07:30:43;14.90;;;5.78;;
22614;SDS011;11474;50.790;0.298;2023-06-14T07:33:10;19.50;;;5.88;;
22614;SDS011;11474;50.790;0.298;2023-06-14T07:35:38;15.00;;;5.57;;
22614;SDS011;11474;50.790;0.298;2023-06-14T07:38:05;16.35;;;6.30;;
22614;SDS011;11474;50.790;0.298;2023-06-14T07:40:31;16.33;;;5.95;;
22614;SDS011;11474;50.790;0.298;2023-06-14T07:42:57;16.15;;;5.80;;
22614;SDS011;11474;50.790;0.298;2023-06-14T07:45:24;16.50;;;5.75;;
22614;SDS011;11474;50.790;0.298;2023-06-14T07:47:50;15.68;;;5.47;;
22614;SDS011;11474;50.790;0.298;2023-06-14T07:50:17;16.77;;;6.10;;
22614;SDS011;11474;50.790;0.298;2023-06-14T07:52:43;15.93;;;5.88;;
22614;SDS011;11474;50.790;0.298;2023-06-14T07:55:10;13.88;;;5.57;;
22614;SDS011;11474;50.790;0.298;2023-06-14T07:57:36;14.77;;;5.82;;
22614;SDS011;11474;50.790;0.298;2023-06-14T08:00:03;12.70;;;5.67;;
22614;SDS011;11474;50.790;0.298;2023-06-14T08:02:32;13.45;;;5.45;;
22614;SDS011;11474;50.790;0.298;2023-06-14T08:04:58;13.20;;;5.57;;
22614;SDS011;11474;50.790;0.298;2023-06-14T08:07:24;14.82;;;5.35;;
22614;SDS011;11474;50.790;0.298;2023-06-14T08:09:50;17.27;;;5.90;;
22614;SDS011;11474;50.790;0.298;2023-06-14T08:12:16;16.48;;;5.72;;
22614;SDS011;11474;50.790;0.298;2023-06-14T08:14:42;18.23;;;5.90;;
22614;SDS011;11474;50.790;0.298;2023-06-14T08:17:09;15.10;;;5.95;;
22614;SDS011;11474;50.790;0.298;2023-06-14T08:19:35;12.95;;;5.75;;
22614;SDS011;11474;50.790;0.298;2023-06-14T08:22:01;14.70;;;5.82;;
22614;SDS011;11474;50.790;0.298;2023-06-14T08:24:28;12.82;;;5.72;;
22614;SDS011;11474;50.790;0.298;2023-06-14T08:26:54;16.13;;;6.05;;
22614;SDS011;11474;50.790;0.298;2023-06-14T08:29:26;12.63;;;5.72;;
22614;SDS011;11474;50.790;0.298;2023-06-14T08:31:54;13.68;;;5.72;;
22614;SDS011;11474;50.790;0.298;2023-06-14T08:34:20;12.68;;;5.30;;
22614;SDS011;11474;50.790;0.298;2023-06-14T08:36:49;15.40;;;5.90;;
22614;SDS011;11474;50.790;0.298;2023-06-14T08:39:16;11.90;;;5.35;;
22614;SDS011;11474;50.790;0.298;2023-06-14T08:41:42;12.65;;;5.57;;
22614;SDS011;11474;50.790;0.298;2023-06-14T08:44:08;15.80;;;6.05;;
22614;SDS011;11474;50.790;0.298;2023-06-14T08:46:35;16.63;;;5.72;;
22614;SDS011;11474;50.790;0.298;2023-06-14T08:49:02;14.50;;;5.75;;
22614;SDS011;11474;50.790;0.298;2023-06-14T08:51:30;11.55;;;5.30;;
22614;SDS011;11474;50.790;0.298;2023-06-14T08:54:01;15.23;;;6.25;;
22614;SDS011;11474;50.790;0.298;2023-06-14T08:56:29;14.43;;;5.70;;
22614;SDS011;11474;50.790;0.298;2023-06-14T08:58:55;16.02;;;5.90;;
22614;SDS011;11474;50.790;0.298;2023-06-14T09:01:22;13.13;;;5.45;;
22614;SDS011;11474;50.790;0.298;2023-06-14T09:03:49;13.50;;;5.93;;
22614;SDS011;11474;50.790;0.298;2023-06-14T09:06:15;15.98;;;5.55;;
22614;SDS011;11474;50.790;0.298;2023-06-14T09:08:45;12.27;;;5.30;;
22614;SDS011;11474;50.790;0.298;2023-06-14T09:11:12;15.00;;;6.43;;
22614;SDS011;11474;50.790;0.298;2023-06-14T09:13:38;14.13;;;5.43;;
22614;SDS011;11474;50.790;0.298;2023-06-14T09:16:05;12.25;;;5.80;;
22614;SDS011;11474;50.790;0.298;2023-06-14T09:18:35;11.73;;;5.20;;
22614;SDS011;11474;50.790;0.298;2023-06-14T09:21:01;12.00;;;5.70;;
22614;SDS011;11474;50.790;0.298;2023-06-14T09:23:27;13.43;;;5.63;;
22614;SDS011;11474;50.790;0.298;2023-06-14T09:25:53;12.65;;;5.43;;
22614;SDS011;11474;50.790;0.298;2023-06-14T09:28:20;12.65;;;5.70;;
22614;SDS011;11474;50.790;0.298;2023-06-14T09:30:48;12.27;;;5.47;;
22614;SDS011;11474;50.790;0.298;2023-06-14T09:33:17;13.38;;;5.35;;
22614;SDS011;11474;50.790;0.298;2023-06-14T09:35:46;13.67;;;5.50;;
22614;SDS011;11474;50.790;0.298;2023-06-14T09:38:16;19.20;;;6.15;;
22614;SDS011;11474;50.790;0.298;2023-06-14T09:40:42;12.00;;;5.40;;
22614;SDS011;11474;50.790;0.298;2023-06-14T09:43:08;11.40;;;5.40;;
22614;SDS011;11474;50.790;0.298;2023-06-14T09:45:35;11.90;;;5.60;;
22614;SDS011;11474;50.790;0.298;2023-06-14T09:48:01;13.52;;;5.70;;
22614;SDS011;11474;50.790;0.298;2023-06-14T09:50:27;11.98;;;5.45;;
22614;SDS011;11474;50.790;0.298;2023-06-14T09:52:54;16.45;;;5.75;;
22614;SDS011;11474;50.790;0.298;2023-06-14T09:55:24;14.05;;;5.60;;
22614;SDS011;11474;50.790;0.298;2023-06-14T09:57:53;13.20;;;5.57;;
22614;SDS011;11474;50.790;0.298;2023-06-14T10:00:21;14.50;;;5.32;;
22614;SDS011;11474;50.790;0.298;2023-06-14T10:02:48;13.57;;;5.80;;
22614;SDS011;11474;50.790;0.298;2023-06-14T10:05:16;13.68;;;5.85;;
22614;SDS011;11474;50.790;0.298;2023-06-14T10:07:48;14.20;;;5.82;;
22614;SDS011;11474;50.790;0.298;2023-06-14T10:10:14;16.48;;;5.63;;
22614;SDS011;11474;50.790;0.298;2023-06-14T10:12:40;13.65;;;5.65;;
22614;SDS011;11474;50.790;0.298;2023-06-14T10:15:10;11.48;;;5.10;;
22614;SDS011;11474;50.790;0.298;2023-06-14T10:17:49;10.60;;;5.53;;
22614;SDS011;11474;50.790;0.298;2023-06-14T10:22:44;13.65;;;5.70;;
22614;SDS011;11474;50.790;0.298;2023-06-14T10:25:25;12.32;;;5.72;;
22614;SDS011;11474;50.790;0.298;2023-06-14T10:27:52;13.43;;;5.38;;
22614;SDS011;11474;50.790;0.298;2023-06-14T10:30:18;11.52;;;5.25;;
22614;SDS011;11474;50.790;0.298;2023-06-14T10:33:06;11.68;;;5.38;;
22614;SDS011;11474;50.790;0.298;2023-06-14T10:35:33;12.30;;;5.50;;
22614;SDS011;11474;50.790;0.298;2023-06-14T10:38:09;12.38;;;5.18;;
22614;SDS011;11474;50.790;0.298;2023-06-14T10:40:35;13.63;;;5.43;;
22614;SDS011;11474;50.790;0.298;2023-06-14T10:43:15;11.02;;;5.43;;
22614;SDS011;11474;50.790;0.298;2023-06-14T10:48:32;11.57;;;5.20;;
22614;SDS011;11474;50.790;0.298;2023-06-14T10:51:01;11.93;;;5.70;;
22614;SDS011;11474;50.790;0.298;2023-06-14T10:53:27;9.68;;;5.05;;
22614;SDS011;11474;50.790;0.298;2023-06-14T10:55:53;12.00;;;5.50;;
22614;SDS011;11474;50.790;0.298;2023-06-14T10:58:22;11.32;;;5.65;;
22614;SDS011;11474;50.790;0.298;2023-06-14T11:00:48;12.48;;;5.85;;
22614;SDS011;11474;50.790;0.298;2023-06-14T11:03:31;13.73;;;5.70;;
22614;SDS011;11474;50.790;0.298;2023-06-14T11:06:06;14.98;;;5.70;;
22614;SDS011;11474;50.790;0.298;2023-06-14T11:11:23;14.98;;;5.70;;
22614;SDS011;11474;50.790;0.298;2023-06-14T11:13:51;16.58;;;6.00;;
22614;SDS011;11474;50.790;0.298;2023-06-14T11:16:17;12.07;;;5.22;;
22614;SDS011;11474;50.790;0.298;2023-06-14T11:18:44;12.38;;;5.80;;
22614;SDS011;11474;50.790;0.298;2023-06-14T11:21:17;12.85;;;5.60;;
22614;SDS011;11474;50.790;0.298;2023-06-14T11:23:53;14.77;;;5.90;;
22614;SDS011;11474;50.790;0.298;2023-06-14T11:26:24;15.73;;;5.90;;
22614;SDS011;11474;50.790;0.298;2023-06-14T11:28:54;12.10;;;5.68;;
22614;SDS011;11474;50.790;0.298;2023-06-14T11:31:21;13.85;;;5.50;;
22614;SDS011;11474;50.790;0.298;2023-06-14T11:33:50;12.70;;;5.30;;
22614;SDS011;11474;50.790;0.298;2023-06-14T11:36:19;11.60;;;5.13;;
22614;SDS011;11474;50.790;0.298;2023-06-14T11:38:45;10.75;;;5.13;;
22614;SDS011;11474;50.790;0.298;2023-06-14T11:41:11;13.50;;;5.10;;
22614;SDS011;11474;50.790;0.298;2023-06-14T11:43:37;15.85;;;5.90;;
22614;SDS011;11474;50.790;0.298;2023-06-14T11:46:03;18.15;;;5.40;;
22614;SDS011;11474;50.790;0.298;2023-06-14T11:48:37;20.55;;;7.38;;
22614;SDS011;11474;50.790;0.298;2023-06-14T11:51:03;9.82;;;5.00;;
22614;SDS011;11474;50.790;0.298;2023-06-14T11:53:30;14.90;;;5.15;;
22614;SDS011;11474;50.790;0.298;2023-06-14T11:55:57;13.07;;;5.50;;
22614;SDS011;11474;50.790;0.298;2023-06-14T11:58:23;10.75;;;5.57;;
22614;SDS011;11474;50.790;0.298;2023-06-14T12:00:49;12.43;;;5.20;;
22614;SDS011;11474;50.790;0.298;2023-06-14T12:03:15;13.27;;;5.90;;
22614;SDS011;11474;50.790;0.298;2023-06-14T12:05:41;13.90;;;6.00;;
22614;SDS011;11474;50.790;0.298;2023-06-14T12:08:08;11.60;;;5.50;;
22614;SDS011;11474;50.790;0.298;2023-06-14T12:10:41;14.83;;;6.00;;
22614;SDS011;11474;50.790;0.298;2023-06-14T12:13:10;15.43;;;5.80;;
22614;SDS011;11474;50.790;0.298;2023-06-14T12:15:36;10.95;;;5.03;;
22614;SDS011;11474;50.790;0.298;2023-06-14T12:18:06;12.52;;;5.95;;
22614;SDS011;11474;50.790;0.298;2023-06-14T12:20:33;12.07;;;5.43;;
22614;SDS011;11474;50.790;0.298;2023-06-14T12:23:02;16.73;;;5.88;;
22614;SDS011;11474;50.790;0.298;2023-06-14T12:25:29;16.08;;;5.50;;
22614;SDS011;11474;50.790;0.298;2023-06-14T12:27:57;12.03;;;5.80;;
22614;SDS011;11474;50.790;0.298;2023-06-14T12:30:23;13.23;;;5.78;;
22614;SDS011;11474;50.790;0.298;2023-06-14T12:32:49;13.03;;;5.93;;
22614;SDS011;11474;50.790;0.298;2023-06-14T12:35:16;13.77;;;5.68;;
22614;SDS011;11474;50.790;0.298;2023-06-14T12:37:46;14.63;;;5.28;;
22614;SDS011;11474;50.790;0.298;2023-06-14T12:40:12;11.77;;;5.40;;
22614;SDS011;11474;50.790;0.298;2023-06-14T12:42:39;11.40;;;5.32;;
22614;SDS011;11474;50.790;0.298;2023-06-14T12:45:05;11.20;;;5.40;;
22614;SDS011;11474;50.790;0.298;2023-06-14T12:47:32;11.02;;;5.65;;
22614;SDS011;11474;50.790;0.298;2023-06-14T12:49:58;13.20;;;5.53;;
22614;SDS011;11474;50.790;0.298;2023-06-14T12:52:24;16.33;;;6.35;;
22614;SDS011;11474;50.790;0.298;2023-06-14T12:54:50;16.40;;;6.57;;
22614;SDS011;11474;50.790;0.298;2023-06-14T12:57:16;11.52;;;5.55;;
22614;SDS011;11474;50.790;0.298;2023-06-14T12:59:42;9.85;;;5.00;;
22614;SDS011;11474;50.790;0.298;2023-06-14T13:02:12;13.25;;;5.20;;
22614;SDS011;11474;50.790;0.298;2023-06-14T13:04:38;12.83;;;5.47;;
22614;SDS011;11474;50.790;0.298;2023-06-14T13:07:05;10.63;;;5.27;;
22614;SDS011;11474;50.790;0.298;2023-06-14T13:09:31;9.57;;;4.65;;
22614;SDS011;11474;50.790;0.298;2023-06-14T13:11:57;12.63;;;5.15;;
22614;SDS011;11474;50.790;0.298;2023-06-14T13:14:23;11.98;;;5.03;;
22614;SDS011;11474;50.790;0.298;2023-06-14T13:16:50;12.65;;;5.35;;
22614;SDS011;11474;50.790;0.298;2023-06-14T13:19:16;13.23;;;5.60;;
22614;SDS011;11474;50.790;0.298;2023-06-14T13:21:42;15.02;;;6.13;;
22614;SDS011;11474;50.790;0.298;2023-06-14T13:24:08;10.95;;;4.95;;
22614;SDS011;11474;50.790;0.298;2023-06-14T13:26:34;9.32;;;4.78;;
22614;SDS011;11474;50.790;0.298;2023-06-14T13:29:00;9.27;;;4.85;;
22614;SDS011;11474;50.790;0.298;2023-06-14T13:31:26;12.23;;;5.63;;
22614;SDS011;11474;50.790;0.298;2023-06-14T13:33:53;14.02;;;6.20;;
22614;SDS011;11474;50.790;0.298;2023-06-14T13:36:19;10.18;;;5.13;;
22614;SDS011;11474;50.790;0.298;2023-06-14T13:38:45;13.52;;;5.35;;
22614;SDS011;11474;50.790;0.298;2023-06-14T13:41:11;10.70;;;5.38;;
22614;SDS011;11474;50.790;0.298;2023-06-14T13:43:37;10.82;;;5.47;;
22614;SDS011;11474;50.790;0.298;2023-06-14T13:46:03;9.52;;;5.07;;
22614;SDS011;11474;50.790;0.298;2023-06-14T13:48:29;11.23;;;5.65;;
22614;SDS011;11474;50.790;0.298;2023-06-14T13:50:55;12.85;;;5.57;;
22614;SDS011;11474;50.790;0.298;2023-06-14T13:53:22;10.32;;;5.15;;
22614;SDS011;11474;50.790;0.298;2023-06-14T13:55:48;15.55;;;5.30;;
22614;SDS011;11474;50.790;0.298;2023-06-14T13:58:14;12.40;;;5.43;;
22614;SDS011;11474;50.790;0.298;2023-06-14T14:00:40;9.90;;;5.05;;
22614;SDS011;11474;50.790;0.298;2023-06-14T14:03:06;12.52;;;5.53;;
22614;SDS011;11474;50.790;0.298;2023-06-14T14:05:34;10.10;;;5.13;;
22614;SDS011;11474;50.790;0.298;2023-06-14T14:08:00;14.00;;;5.07;;
22614;SDS011;11474;50.790;0.298;2023-06-14T14:10:27;12.55;;;5.43;;
22614;SDS011;11474;50.790;0.298;2023-06-14T14:12:54;11.88;;;5.43;;
22614;SDS011;11474;50.790;0.298;2023-06-14T14:15:20;13.43;;;5.75;;
22614;SDS011;11474;50.790;0.298;2023-06-14T14:17:46;12.88;;;5.15;;
22614;SDS011;11474;50.790;0.298;2023-06-14T14:20:12;10.80;;;5.25;;
22614;SDS011;11474;50.790;0.298;2023-06-14T14:22:41;13.52;;;5.55;;
22614;SDS011;11474;50.790;0.298;2023-06-14T14:25:07;12.70;;;5.47;;
22614;SDS011;11474;50.790;0.298;2023-06-14T14:27:33;9.80;;;5.13;;
22614;SDS011;11474;50.790;0.298;2023-06-14T14:29:59;13.35;;;5.50;;
22614;SDS011;11474;50.790;0.298;2023-06-14T14:32:25;12.88;;;5.45;;
22614;SDS011;11474;50.790;0.298;2023-06-14T14:34:51;10.82;;;4.85;;
22614;SDS011;11474;50.790;0.298;2023-06-14T14:37:17;10.95;;;5.07;;
22614;SDS011;11474;50.790;0.298;2023-06-14T14:39:44;11.23;;;5.30;;
22614;SDS011;11474;50.790;0.298;2023-06-14T14:42:10;13.77;;;4.95;;
22614;SDS011;11474;50.790;0.298;2023-06-14T14:44:37;9.63;;;4.53;;
22614;SDS011;11474;50.790;0.298;2023-06-14T14:47:03;9.25;;;4.70;;
22614;SDS011;11474;50.790;0.298;2023-06-14T14:49:30;11.27;;;5.25;;
22614;SDS011;11474;50.790;0.298;2023-06-14T14:51:57;12.52;;;5.00;;